sensor_id;sensor_type;location;lat;lon;timestamp;temperature;humidity
8178;DHT22;4130;48.740;9.132;2022-07-24T00:01:29;18.70;99.90
8178;DHT22;4130;48.740;9.132;2022-07-24T00:03:56;18.80;99.90
8178;DHT22;4130;48.740;9.132;2022-07-24T00:06:23;18.70;99.90
8178;DHT22;4130;48.740;9.132;2022-07-24T00:08:50;18.70;99.90
8178;DHT22;4130;48.740;9.132;2022-07-24T00:11:21;18.70;99.90
8178;DHT22;4130;48.740;9.132;2022-07-24T00:13:53;18.60;99.90
8178;DHT22;4130;48.740;9.132;2022-07-24T00:16:20;18.60;99.90
8178;DHT22;4130;48.740;9.132;2022-07-24T00:18:48;18.60;99.90
8178;DHT22;4130;48.740;9.132;2022-07-24T00:21:15;18.50;99.90
8178;DHT22;4130;48.740;9.132;2022-07-24T00:23:42;18.60;99.90
8178;DHT22;4130;48.740;9.132;2022-07-24T00:26:09;18.60;99.90
8178;DHT22;4130;48.740;9.132;2022-07-24T00:28:37;18.60;99.90
8178;DHT22;4130;48.740;9.132;2022-07-24T00:31:04;18.50;99.90
8178;DHT22;4130;48.740;9.132;2022-07-24T00:33:31;18.60;99.90
8178;DHT22;4130;48.740;9.132;2022-07-24T00:35:59;18.60;99.90
8178;DHT22;4130;48.740;9.132;2022-07-24T00:38:26;18.70;99.90
8178;DHT22;4130;48.740;9.132;2022-07-24T00:40:52;18.60;99.90
8178;DHT22;4130;48.740;9.132;2022-07-24T00:43:19;18.80;99.90
8178;DHT22;4130;48.740;9.132;2022-07-24T00:45:47;18.50;99.90
8178;DHT22;4130;48.740;9.132;2022-07-24T00:48:14;18.60;99.90
8178;DHT22;4130;48.740;9.132;2022-07-24T00:50:40;18.40;99.90
8178;DHT22;4130;48.740;9.132;2022-07-24T00:53:09;18.40;99.90
8178;DHT22;4130;48.740;9.132;2022-07-24T00:55:37;18.50;99.90
8178;DHT22;4130;48.740;9.132;2022-07-24T00:58:04;18.30;99.90
8178;DHT22;4130;48.740;9.132;2022-07-24T01:00:31;18.40;99.90
8178;DHT22;4130;48.740;9.132;2022-07-24T01:02:58;18.40;99.90
8178;DHT22;4130;48.740;9.132;2022-07-24T01:05:25;18.40;99.90
8178;DHT22;4130;48.740;9.132;2022-07-24T01:07:52;18.40;99.90
8178;DHT22;4130;48.740;9.132;2022-07-24T01:10:20;18.30;99.90
8178;DHT22;4130;48.740;9.132;2022-07-24T01:12:47;18.40;99.90
8178;DHT22;4130;48.740;9.132;2022-07-24T01:15:14;18.30;99.90
8178;DHT22;4130;48.740;9.132;2022-07-24T01:17:42;18.40;99.90
8178;DHT22;4130;48.740;9.132;2022-07-24T01:20:27;18.30;99.90
8178;DHT22;4130;48.740;9.132;2022-07-24T01:22:55;18.30;99.90
8178;DHT22;4130;48.740;9.132;2022-07-24T01:25:22;18.40;99.90
8178;DHT22;4130;48.740;9.132;2022-07-24T01:27:49;18.30;99.90
8178;DHT22;4130;48.740;9.132;2022-07-24T01:30:16;18.30;99.90
8178;DHT22;4130;48.740;9.132;2022-07-24T01:32:43;18.30;99.90
8178;DHT22;4130;48.740;9.132;2022-07-24T01:35:09;18.10;99.90
8178;DHT22;4130;48.740;9.132;2022-07-24T01:37:42;18.00;99.90
8178;DHT22;4130;48.740;9.132;2022-07-24T01:40:11;17.90;99.90
8178;DHT22;4130;48.740;9.132;2022-07-24T01:42:38;17.90;99.90
8178;DHT22;4130;48.740;9.132;2022-07-24T01:45:06;17.90;99.90
8178;DHT22;4130;48.740;9.132;2022-07-24T01:47:33;17.80;99.90
8178;DHT22;4130;48.740;9.132;2022-07-24T01:50:00;17.80;99.90
8178;DHT22;4130;48.740;9.132;2022-07-24T01:52:27;17.90;99.90
8178;DHT22;4130;48.740;9.132;2022-07-24T01:54:54;17.80;99.90
8178;DHT22;4130;48.740;9.132;2022-07-24T01:57:22;17.70;99.90
8178;DHT22;4130;48.740;9.132;2022-07-24T01:59:49;17.80;99.90
8178;DHT22;4130;48.740;9.132;2022-07-24T02:02:15;17.80;99.90
8178;DHT22;4130;48.740;9.132;2022-07-24T02:04:42;17.90;99.90
8178;DHT22;4130;48.740;9.132;2022-07-24T02:07:11;17.60;99.90
8178;DHT22;4130;48.740;9.132;2022-07-24T02:09:38;17.50;99.90
8178;DHT22;4130;48.740;9.132;2022-07-24T02:12:05;17.50;99.90
8178;DHT22;4130;48.740;9.132;2022-07-24T02:14:33;17.50;99.90
8178;DHT22;4130;48.740;9.132;2022-07-24T02:17:00;17.40;99.90
8178;DHT22;4130;48.740;9.132;2022-07-24T02:19:27;17.40;99.90
8178;DHT22;4130;48.740;9.132;2022-07-24T02:21:54;17.40;99.90
8178;DHT22;4130;48.740;9.132;2022-07-24T02:24:21;17.30;99.90
8178;DHT22;4130;48.740;9.132;2022-07-24T02:26:48;17.20;99.90
8178;DHT22;4130;48.740;9.132;2022-07-24T02:29:15;17.20;99.90
8178;DHT22;4130;48.740;9.132;2022-07-24T02:31:44;17.10;99.90
8178;DHT22;4130;48.740;9.132;2022-07-24T02:34:10;17.20;99.90
8178;DHT22;4130;48.740;9.132;2022-07-24T02:36:37;17.20;99.90
8178;DHT22;4130;48.740;9.132;2022-07-24T02:39:04;17.10;99.90
8178;DHT22;4130;48.740;9.132;2022-07-24T02:41:31;17.20;99.90
8178;DHT22;4130;48.740;9.132;2022-07-24T02:44:01;17.10;99.90
8178;DHT22;4130;48.740;9.132;2022-07-24T02:46:28;17.00;99.90
8178;DHT22;4130;48.740;9.132;2022-07-24T02:48:56;17.00;99.90
8178;DHT22;4130;48.740;9.132;2022-07-24T02:51:22;17.00;99.90
8178;DHT22;4130;48.740;9.132;2022-07-24T02:53:49;17.00;99.90
8178;DHT22;4130;48.740;9.132;2022-07-24T02:56:16;16.90;99.90
8178;DHT22;4130;48.740;9.132;2022-07-24T02:58:43;16.90;99.90
8178;DHT22;4130;48.740;9.132;2022-07-24T03:01:10;16.90;99.90
8178;DHT22;4130;48.740;9.132;2022-07-24T03:03:37;17.00;99.90
8178;DHT22;4130;48.740;9.132;2022-07-24T03:06:05;17.10;99.90
8178;DHT22;4130;48.740;9.132;2022-07-24T03:08:32;16.80;99.90
8178;DHT22;4130;48.740;9.132;2022-07-24T03:10:59;17.20;99.90
8178;DHT22;4130;48.740;9.132;2022-07-24T03:13:26;16.70;99.90
8178;DHT22;4130;48.740;9.132;2022-07-24T03:15:52;16.70;99.90
8178;DHT22;4130;48.740;9.132;2022-07-24T03:18:19;17.00;99.90
8178;DHT22;4130;48.740;9.132;2022-07-24T03:20:46;16.90;99.90
8178;DHT22;4130;48.740;9.132;2022-07-24T03:23:14;16.60;99.90
8178;DHT22;4130;48.740;9.132;2022-07-24T03:25:41;17.20;99.90
8178;DHT22;4130;48.740;9.132;2022-07-24T03:28:09;16.80;99.90
8178;DHT22;4130;48.740;9.132;2022-07-24T03:30:36;16.70;99.90
8178;DHT22;4130;48.740;9.132;2022-07-24T03:33:03;16.60;99.90
8178;DHT22;4130;48.740;9.132;2022-07-24T03:35:29;16.50;99.90
8178;DHT22;4130;48.740;9.132;2022-07-24T03:37:56;16.50;99.90
8178;DHT22;4130;48.740;9.132;2022-07-24T03:40:24;16.50;99.90
8178;DHT22;4130;48.740;9.132;2022-07-24T03:42:51;16.50;99.90
8178;DHT22;4130;48.740;9.132;2022-07-24T03:45:18;17.10;99.90
8178;DHT22;4130;48.740;9.132;2022-07-24T03:48:16;16.90;99.90
8178;DHT22;4130;48.740;9.132;2022-07-24T03:50:43;16.50;99.90
8178;DHT22;4130;48.740;9.132;2022-07-24T03:53:09;16.50;99.90
8178;DHT22;4130;48.740;9.132;2022-07-24T03:55:38;16.30;99.90
8178;DHT22;4130;48.740;9.132;2022-07-24T03:58:05;16.40;99.90
8178;DHT22;4130;48.740;9.132;2022-07-24T04:00:31;16.30;99.90
8178;DHT22;4130;48.740;9.132;2022-07-24T04:02:58;16.40;99.90
8178;DHT22;4130;48.740;9.132;2022-07-24T04:05:25;16.40;99.90
8178;DHT22;4130;48.740;9.132;2022-07-24T04:07:52;16.30;99.90
8178;DHT22;4130;48.740;9.132;2022-07-24T04:10:18;16.30;99.90
8178;DHT22;4130;48.740;9.132;2022-07-24T04:13:01;16.40;99.90
8178;DHT22;4130;48.740;9.132;2022-07-24T04:15:27;16.40;99.90
8178;DHT22;4130;48.740;9.132;2022-07-24T04:17:54;16.40;99.90
8178;DHT22;4130;48.740;9.132;2022-07-24T04:20:21;16.40;99.90
8178;DHT22;4130;48.740;9.132;2022-07-24T04:22:48;16.40;99.90
8178;DHT22;4130;48.740;9.132;2022-07-24T04:25:15;16.60;99.90
8178;DHT22;4130;48.740;9.132;2022-07-24T04:27:42;16.40;99.90
8178;DHT22;4130;48.740;9.132;2022-07-24T04:30:12;16.50;99.90
8178;DHT22;4130;48.740;9.132;2022-07-24T04:32:39;16.60;99.90
8178;DHT22;4130;48.740;9.132;2022-07-24T04:35:06;16.60;99.90
8178;DHT22;4130;48.740;9.132;2022-07-24T04:37:33;16.60;99.90
8178;DHT22;4130;48.740;9.132;2022-07-24T04:40:00;16.70;99.90
8178;DHT22;4130;48.740;9.132;2022-07-24T04:42:27;16.60;99.90
8178;DHT22;4130;48.740;9.132;2022-07-24T04:44:53;16.70;99.90
8178;DHT22;4130;48.740;9.132;2022-07-24T04:47:22;16.80;99.90
8178;DHT22;4130;48.740;9.132;2022-07-24T04:49:48;16.80;99.90
8178;DHT22;4130;48.740;9.132;2022-07-24T04:52:15;16.80;99.90
8178;DHT22;4130;48.740;9.132;2022-07-24T04:54:42;16.90;99.90
8178;DHT22;4130;48.740;9.132;2022-07-24T04:57:19;16.90;99.90
8178;DHT22;4130;48.740;9.132;2022-07-24T04:59:45;17.00;99.90
8178;DHT22;4130;48.740;9.132;2022-07-24T05:02:12;17.00;99.90
8178;DHT22;4130;48.740;9.132;2022-07-24T05:04:41;17.10;99.90
8178;DHT22;4130;48.740;9.132;2022-07-24T05:07:07;17.00;99.90
8178;DHT22;4130;48.740;9.132;2022-07-24T05:09:34;17.10;99.90
8178;DHT22;4130;48.740;9.132;2022-07-24T05:12:01;17.20;99.90
8178;DHT22;4130;48.740;9.132;2022-07-24T05:14:28;17.30;99.90
8178;DHT22;4130;48.740;9.132;2022-07-24T05:16:55;17.30;99.90
8178;DHT22;4130;48.740;9.132;2022-07-24T05:19:22;17.40;99.90
8178;DHT22;4130;48.740;9.132;2022-07-24T05:21:50;17.50;99.90
8178;DHT22;4130;48.740;9.132;2022-07-24T05:24:17;17.50;99.90
8178;DHT22;4130;48.740;9.132;2022-07-24T05:26:44;17.60;99.90
8178;DHT22;4130;48.740;9.132;2022-07-24T05:29:11;17.60;99.90
8178;DHT22;4130;48.740;9.132;2022-07-24T05:31:38;17.80;99.90
8178;DHT22;4130;48.740;9.132;2022-07-24T05:34:05;17.80;99.90
8178;DHT22;4130;48.740;9.132;2022-07-24T05:36:32;17.90;99.90
8178;DHT22;4130;48.740;9.132;2022-07-24T05:39:00;18.00;99.90
8178;DHT22;4130;48.740;9.132;2022-07-24T05:41:27;18.10;99.90
8178;DHT22;4130;48.740;9.132;2022-07-24T05:43:53;18.20;99.90
8178;DHT22;4130;48.740;9.132;2022-07-24T05:46:20;18.30;99.90
8178;DHT22;4130;48.740;9.132;2022-07-24T05:48:47;18.40;99.90
8178;DHT22;4130;48.740;9.132;2022-07-24T05:51:14;18.40;99.90
8178;DHT22;4130;48.740;9.132;2022-07-24T05:53:41;18.60;99.90
8178;DHT22;4130;48.740;9.132;2022-07-24T05:56:09;18.70;99.90
8178;DHT22;4130;48.740;9.132;2022-07-24T05:58:36;18.80;99.90
8178;DHT22;4130;48.740;9.132;2022-07-24T06:01:03;18.90;99.90
8178;DHT22;4130;48.740;9.132;2022-07-24T06:03:30;19.00;99.90
8178;DHT22;4130;48.740;9.132;2022-07-24T06:05:56;19.10;99.90
8178;DHT22;4130;48.740;9.132;2022-07-24T06:08:23;19.20;99.90
8178;DHT22;4130;48.740;9.132;2022-07-24T06:10:50;19.30;99.90
8178;DHT22;4130;48.740;9.132;2022-07-24T06:13:18;19.40;99.90
8178;DHT22;4130;48.740;9.132;2022-07-24T06:15:45;19.50;99.90
8178;DHT22;4130;48.740;9.132;2022-07-24T06:18:12;19.60;99.90
8178;DHT22;4130;48.740;9.132;2022-07-24T06:20:39;19.70;99.90
8178;DHT22;4130;48.740;9.132;2022-07-24T06:23:06;19.80;99.90
8178;DHT22;4130;48.740;9.132;2022-07-24T06:25:32;20.00;99.90
8178;DHT22;4130;48.740;9.132;2022-07-24T06:27:59;20.10;99.90
8178;DHT22;4130;48.740;9.132;2022-07-24T06:30:28;20.20;99.90
8178;DHT22;4130;48.740;9.132;2022-07-24T06:32:58;20.30;99.90
8178;DHT22;4130;48.740;9.132;2022-07-24T06:35:26;20.50;99.90
8178;DHT22;4130;48.740;9.132;2022-07-24T06:37:53;20.60;99.90
8178;DHT22;4130;48.740;9.132;2022-07-24T06:40:21;20.70;99.90
8178;DHT22;4130;48.740;9.132;2022-07-24T06:42:48;20.80;99.90
8178;DHT22;4130;48.740;9.132;2022-07-24T06:45:16;20.90;99.90
8178;DHT22;4130;48.740;9.132;2022-07-24T06:47:44;21.00;99.90
8178;DHT22;4130;48.740;9.132;2022-07-24T06:50:12;21.10;99.90
8178;DHT22;4130;48.740;9.132;2022-07-24T06:52:39;21.30;99.90
8178;DHT22;4130;48.740;9.132;2022-07-24T06:55:07;21.40;99.90
8178;DHT22;4130;48.740;9.132;2022-07-24T06:57:34;21.50;99.90
8178;DHT22;4130;48.740;9.132;2022-07-24T07:00:01;21.80;99.90
8178;DHT22;4130;48.740;9.132;2022-07-24T07:02:28;21.90;99.90
8178;DHT22;4130;48.740;9.132;2022-07-24T07:04:56;22.10;99.90
8178;DHT22;4130;48.740;9.132;2022-07-24T07:07:22;22.20;99.90
8178;DHT22;4130;48.740;9.132;2022-07-24T07:09:50;22.40;99.90
8178;DHT22;4130;48.740;9.132;2022-07-24T07:12:16;22.70;99.90
8178;DHT22;4130;48.740;9.132;2022-07-24T07:14:43;23.20;99.90
8178;DHT22;4130;48.740;9.132;2022-07-24T07:17:10;23.70;99.90
8178;DHT22;4130;48.740;9.132;2022-07-24T07:19:37;24.20;99.90
8178;DHT22;4130;48.740;9.132;2022-07-24T07:22:05;24.90;99.90
8178;DHT22;4130;48.740;9.132;2022-07-24T07:24:32;25.30;99.90
8178;DHT22;4130;48.740;9.132;2022-07-24T07:26:59;25.80;99.90
8178;DHT22;4130;48.740;9.132;2022-07-24T07:29:25;26.50;99.90
8178;DHT22;4130;48.740;9.132;2022-07-24T07:31:52;26.90;99.90
8178;DHT22;4130;48.740;9.132;2022-07-24T07:34:19;27.00;99.90
8178;DHT22;4130;48.740;9.132;2022-07-24T07:36:46;27.10;99.70
8178;DHT22;4130;48.740;9.132;2022-07-24T07:39:15;27.30;99.90
8178;DHT22;4130;48.740;9.132;2022-07-24T07:41:42;27.80;99.50
8178;DHT22;4130;48.740;9.132;2022-07-24T07:44:11;28.00;97.60
8178;DHT22;4130;48.740;9.132;2022-07-24T07:46:41;28.50;97.80
8178;DHT22;4130;48.740;9.132;2022-07-24T07:49:09;28.90;97.90
8178;DHT22;4130;48.740;9.132;2022-07-24T07:51:35;29.20;96.60
8178;DHT22;4130;48.740;9.132;2022-07-24T07:54:02;29.40;96.00
8178;DHT22;4130;48.740;9.132;2022-07-24T07:56:31;29.30;95.60
8178;DHT22;4130;48.740;9.132;2022-07-24T07:58:58;29.50;95.00
8178;DHT22;4130;48.740;9.132;2022-07-24T08:01:24;29.90;94.90
8178;DHT22;4130;48.740;9.132;2022-07-24T08:03:51;30.10;94.10
8178;DHT22;4130;48.740;9.132;2022-07-24T08:06:18;30.20;95.00
8178;DHT22;4130;48.740;9.132;2022-07-24T08:08:45;30.40;94.20
8178;DHT22;4130;48.740;9.132;2022-07-24T08:11:12;30.20;94.00
8178;DHT22;4130;48.740;9.132;2022-07-24T08:13:41;30.40;93.40
8178;DHT22;4130;48.740;9.132;2022-07-24T08:16:08;30.30;93.80
8178;DHT22;4130;48.740;9.132;2022-07-24T08:18:38;30.80;93.50
8178;DHT22;4130;48.740;9.132;2022-07-24T08:21:05;30.80;93.40
8178;DHT22;4130;48.740;9.132;2022-07-24T08:23:32;30.80;93.10
8178;DHT22;4130;48.740;9.132;2022-07-24T08:25:59;30.70;93.00
8178;DHT22;4130;48.740;9.132;2022-07-24T08:28:25;30.30;92.40
8178;DHT22;4130;48.740;9.132;2022-07-24T08:30:54;30.80;92.90
8178;DHT22;4130;48.740;9.132;2022-07-24T08:33:21;30.70;92.00
8178;DHT22;4130;48.740;9.132;2022-07-24T08:35:48;30.80;92.40
8178;DHT22;4130;48.740;9.132;2022-07-24T08:38:15;31.20;92.80
8178;DHT22;4130;48.740;9.132;2022-07-24T08:40:42;31.60;91.90
8178;DHT22;4130;48.740;9.132;2022-07-24T08:43:09;31.60;91.30
8178;DHT22;4130;48.740;9.132;2022-07-24T08:45:38;31.60;91.70
8178;DHT22;4130;48.740;9.132;2022-07-24T08:48:09;32.10;91.30
8178;DHT22;4130;48.740;9.132;2022-07-24T08:50:38;31.80;90.30
8178;DHT22;4130;48.740;9.132;2022-07-24T08:53:06;32.00;91.40
8178;DHT22;4130;48.740;9.132;2022-07-24T08:55:33;32.10;90.20
8178;DHT22;4130;48.740;9.132;2022-07-24T08:58:00;31.60;90.50
8178;DHT22;4130;48.740;9.132;2022-07-24T09:00:30;31.60;90.00
8178;DHT22;4130;48.740;9.132;2022-07-24T09:02:56;32.10;90.30
8178;DHT22;4130;48.740;9.132;2022-07-24T09:05:25;31.90;89.80
8178;DHT22;4130;48.740;9.132;2022-07-24T09:08:09;31.90;90.00
8178;DHT22;4130;48.740;9.132;2022-07-24T09:10:36;32.20;90.20
8178;DHT22;4130;48.740;9.132;2022-07-24T09:13:12;32.00;88.80
8178;DHT22;4130;48.740;9.132;2022-07-24T09:15:45;32.40;90.00
8178;DHT22;4130;48.740;9.132;2022-07-24T09:18:26;32.90;87.60
8178;DHT22;4130;48.740;9.132;2022-07-24T09:20:55;32.80;86.10
8178;DHT22;4130;48.740;9.132;2022-07-24T09:23:23;32.40;87.60
8178;DHT22;4130;48.740;9.132;2022-07-24T09:39:53;31.40;88.30
8178;DHT22;4130;48.740;9.132;2022-07-24T09:42:32;31.40;88.20
8178;DHT22;4130;48.740;9.132;2022-07-24T09:45:09;31.00;89.00
8178;DHT22;4130;48.740;9.132;2022-07-24T09:47:37;30.50;88.70
8178;DHT22;4130;48.740;9.132;2022-07-24T09:50:14;30.20;89.90
8178;DHT22;4130;48.740;9.132;2022-07-24T09:52:43;29.50;89.10
8178;DHT22;4130;48.740;9.132;2022-07-24T09:55:23;29.00;90.00
8178;DHT22;4130;48.740;9.132;2022-07-24T09:57:50;28.60;90.00
8178;DHT22;4130;48.740;9.132;2022-07-24T10:00:18;28.30;89.50
8178;DHT22;4130;48.740;9.132;2022-07-24T10:02:45;28.00;90.30
8178;DHT22;4130;48.740;9.132;2022-07-24T10:05:13;28.00;90.30
8178;DHT22;4130;48.740;9.132;2022-07-24T10:07:41;27.90;90.60
8178;DHT22;4130;48.740;9.132;2022-07-24T10:10:10;28.20;90.90
8178;DHT22;4130;48.740;9.132;2022-07-24T10:12:39;29.00;90.30
8178;DHT22;4130;48.740;9.132;2022-07-24T10:15:08;29.50;90.30
8178;DHT22;4130;48.740;9.132;2022-07-24T10:18:09;30.00;90.10
8178;DHT22;4130;48.740;9.132;2022-07-24T10:20:43;30.60;89.90
8178;DHT22;4130;48.740;9.132;2022-07-24T10:23:21;31.40;87.90
8178;DHT22;4130;48.740;9.132;2022-07-24T10:25:54;32.20;87.90
8178;DHT22;4130;48.740;9.132;2022-07-24T10:28:39;32.90;86.30
8178;DHT22;4130;48.740;9.132;2022-07-24T10:31:07;33.80;83.70
8178;DHT22;4130;48.740;9.132;2022-07-24T10:33:36;34.90;84.10
8178;DHT22;4130;48.740;9.132;2022-07-24T10:36:13;35.40;80.80
8178;DHT22;4130;48.740;9.132;2022-07-24T10:38:49;35.80;80.30
8178;DHT22;4130;48.740;9.132;2022-07-24T10:41:23;36.00;78.80
8178;DHT22;4130;48.740;9.132;2022-07-24T10:44:16;35.70;78.70
8178;DHT22;4130;48.740;9.132;2022-07-24T10:47:04;35.60;80.20
8178;DHT22;4130;48.740;9.132;2022-07-24T10:49:45;35.40;78.70
8178;DHT22;4130;48.740;9.132;2022-07-24T10:52:22;35.50;78.50
8178;DHT22;4130;48.740;9.132;2022-07-24T10:55:20;35.70;78.90
8178;DHT22;4130;48.740;9.132;2022-07-24T10:57:53;36.10;76.80
8178;DHT22;4130;48.740;9.132;2022-07-24T11:00:32;35.70;77.20
8178;DHT22;4130;48.740;9.132;2022-07-24T11:03:03;36.20;77.60
8178;DHT22;4130;48.740;9.132;2022-07-24T11:05:32;35.70;74.80
8178;DHT22;4130;48.740;9.132;2022-07-24T11:08:37;35.70;76.70
8178;DHT22;4130;48.740;9.132;2022-07-24T11:11:13;35.30;75.60
8178;DHT22;4130;48.740;9.132;2022-07-24T11:13:45;35.00;76.80
8178;DHT22;4130;48.740;9.132;2022-07-24T11:16:19;34.50;76.80
8178;DHT22;4130;48.740;9.132;2022-07-24T11:19:24;33.70;79.00
8178;DHT22;4130;48.740;9.132;2022-07-24T11:22:06;32.90;78.60
8178;DHT22;4130;48.740;9.132;2022-07-24T11:24:33;32.20;78.60
8178;DHT22;4130;48.740;9.132;2022-07-24T11:27:05;32.00;79.60
8178;DHT22;4130;48.740;9.132;2022-07-24T11:29:35;32.10;82.10
8178;DHT22;4130;48.740;9.132;2022-07-24T11:32:04;32.80;80.80
8178;DHT22;4130;48.740;9.132;2022-07-24T11:34:33;33.70;81.00
8178;DHT22;4130;48.740;9.132;2022-07-24T11:37:00;34.30;80.40
8178;DHT22;4130;48.740;9.132;2022-07-24T11:39:29;34.70;79.10
8178;DHT22;4130;48.740;9.132;2022-07-24T11:41:57;35.10;78.10
8178;DHT22;4130;48.740;9.132;2022-07-24T11:44:25;35.20;78.30
8178;DHT22;4130;48.740;9.132;2022-07-24T11:46:54;34.60;77.60
8178;DHT22;4130;48.740;9.132;2022-07-24T11:49:24;34.70;77.80
8178;DHT22;4130;48.740;9.132;2022-07-24T11:51:53;34.90;76.10
8178;DHT22;4130;48.740;9.132;2022-07-24T11:54:22;34.60;75.60
8178;DHT22;4130;48.740;9.132;2022-07-24T11:56:50;34.40;75.00
8178;DHT22;4130;48.740;9.132;2022-07-24T11:59:24;34.40;76.60
8178;DHT22;4130;48.740;9.132;2022-07-24T12:01:54;34.50;76.00
8178;DHT22;4130;48.740;9.132;2022-07-24T12:04:23;34.80;76.10
8178;DHT22;4130;48.740;9.132;2022-07-24T12:06:50;34.90;74.50
8178;DHT22;4130;48.740;9.132;2022-07-24T12:09:17;34.70;75.30
8178;DHT22;4130;48.740;9.132;2022-07-24T12:11:44;34.90;75.80
8178;DHT22;4130;48.740;9.132;2022-07-24T12:14:14;34.90;75.00
8178;DHT22;4130;48.740;9.132;2022-07-24T12:16:41;35.00;76.00
8178;DHT22;4130;48.740;9.132;2022-07-24T12:19:13;35.20;75.70
8178;DHT22;4130;48.740;9.132;2022-07-24T12:21:41;35.40;75.00
8178;DHT22;4130;48.740;9.132;2022-07-24T12:24:09;35.40;75.00
8178;DHT22;4130;48.740;9.132;2022-07-24T12:26:48;35.30;74.70
8178;DHT22;4130;48.740;9.132;2022-07-24T12:29:15;35.40;73.90
8178;DHT22;4130;48.740;9.132;2022-07-24T12:31:43;35.60;74.00
8178;DHT22;4130;48.740;9.132;2022-07-24T12:34:09;35.80;74.10
8178;DHT22;4130;48.740;9.132;2022-07-24T12:36:36;35.40;72.50
8178;DHT22;4130;48.740;9.132;2022-07-24T12:39:05;35.60;72.60
8178;DHT22;4130;48.740;9.132;2022-07-24T12:41:39;35.10;72.30
8178;DHT22;4130;48.740;9.132;2022-07-24T12:44:07;34.70;73.00
8178;DHT22;4130;48.740;9.132;2022-07-24T12:46:35;34.10;72.40
8178;DHT22;4130;48.740;9.132;2022-07-24T12:49:03;33.60;72.10
8178;DHT22;4130;48.740;9.132;2022-07-24T12:51:44;33.30;73.60
8178;DHT22;4130;48.740;9.132;2022-07-24T12:54:17;33.00;75.60
8178;DHT22;4130;48.740;9.132;2022-07-24T12:56:44;32.70;76.00
8178;DHT22;4130;48.740;9.132;2022-07-24T12:59:22;32.80;75.70
8178;DHT22;4130;48.740;9.132;2022-07-24T13:01:51;32.90;76.00
8178;DHT22;4130;48.740;9.132;2022-07-24T13:04:19;32.90;76.10
8178;DHT22;4130;48.740;9.132;2022-07-24T13:06:48;32.90;76.50
8178;DHT22;4130;48.740;9.132;2022-07-24T13:09:17;33.10;75.10
8178;DHT22;4130;48.740;9.132;2022-07-24T13:11:45;33.30;74.70
8178;DHT22;4130;48.740;9.132;2022-07-24T13:14:14;33.40;75.90
8178;DHT22;4130;48.740;9.132;2022-07-24T13:16:43;34.10;75.70
8178;DHT22;4130;48.740;9.132;2022-07-24T13:19:11;34.60;75.50
8178;DHT22;4130;48.740;9.132;2022-07-24T13:21:39;34.80;74.40
8178;DHT22;4130;48.740;9.132;2022-07-24T13:24:07;34.60;73.50
8178;DHT22;4130;48.740;9.132;2022-07-24T13:26:36;34.30;70.70
8178;DHT22;4130;48.740;9.132;2022-07-24T13:29:04;34.30;71.70
8178;DHT22;4130;48.740;9.132;2022-07-24T13:31:31;34.40;72.90
8178;DHT22;4130;48.740;9.132;2022-07-24T13:33:58;34.50;71.50
8178;DHT22;4130;48.740;9.132;2022-07-24T13:36:25;34.20;71.70
8178;DHT22;4130;48.740;9.132;2022-07-24T13:38:52;34.10;72.50
8178;DHT22;4130;48.740;9.132;2022-07-24T13:41:19;34.00;71.90
8178;DHT22;4130;48.740;9.132;2022-07-24T13:43:48;33.70;73.20
8178;DHT22;4130;48.740;9.132;2022-07-24T13:46:16;33.50;73.20
8178;DHT22;4130;48.740;9.132;2022-07-24T13:48:44;33.20;73.70
8178;DHT22;4130;48.740;9.132;2022-07-24T13:51:11;33.00;74.50
8178;DHT22;4130;48.740;9.132;2022-07-24T13:53:38;33.00;75.20
8178;DHT22;4130;48.740;9.132;2022-07-24T13:56:05;32.80;75.10
8178;DHT22;4130;48.740;9.132;2022-07-24T13:58:33;32.70;75.40
8178;DHT22;4130;48.740;9.132;2022-07-24T14:01:03;32.30;74.60
8178;DHT22;4130;48.740;9.132;2022-07-24T14:03:30;32.00;76.70
8178;DHT22;4130;48.740;9.132;2022-07-24T14:05:57;31.70;75.60
8178;DHT22;4130;48.740;9.132;2022-07-24T14:08:24;31.70;75.90
8178;DHT22;4130;48.740;9.132;2022-07-24T14:10:51;31.70;75.20
8178;DHT22;4130;48.740;9.132;2022-07-24T14:13:19;31.60;75.10
8178;DHT22;4130;48.740;9.132;2022-07-24T14:15:46;31.70;76.70
8178;DHT22;4130;48.740;9.132;2022-07-24T14:18:16;31.70;76.50
8178;DHT22;4130;48.740;9.132;2022-07-24T14:20:43;31.50;75.80
8178;DHT22;4130;48.740;9.132;2022-07-24T14:23:10;31.20;75.40
8178;DHT22;4130;48.740;9.132;2022-07-24T14:25:38;30.80;75.70
8178;DHT22;4130;48.740;9.132;2022-07-24T14:28:05;30.60;77.00
8178;DHT22;4130;48.740;9.132;2022-07-24T14:30:33;30.30;76.60
8178;DHT22;4130;48.740;9.132;2022-07-24T14:33:00;30.20;76.60
8178;DHT22;4130;48.740;9.132;2022-07-24T14:35:29;30.30;77.00
8178;DHT22;4130;48.740;9.132;2022-07-24T14:37:57;30.60;76.50
8178;DHT22;4130;48.740;9.132;2022-07-24T14:40:25;31.00;75.20
8178;DHT22;4130;48.740;9.132;2022-07-24T14:42:52;31.30;75.00
8178;DHT22;4130;48.740;9.132;2022-07-24T14:45:21;31.50;75.50
8178;DHT22;4130;48.740;9.132;2022-07-24T14:47:49;31.80;73.90
8178;DHT22;4130;48.740;9.132;2022-07-24T14:50:16;32.00;74.40
8178;DHT22;4130;48.740;9.132;2022-07-24T14:52:45;31.90;73.50
8178;DHT22;4130;48.740;9.132;2022-07-24T14:55:12;31.60;74.00
8178;DHT22;4130;48.740;9.132;2022-07-24T14:57:40;31.50;75.00
8178;DHT22;4130;48.740;9.132;2022-07-24T15:00:08;31.50;74.20
8178;DHT22;4130;48.740;9.132;2022-07-24T15:02:35;31.60;76.20
8178;DHT22;4130;48.740;9.132;2022-07-24T15:05:03;31.50;75.30
8178;DHT22;4130;48.740;9.132;2022-07-24T15:07:30;31.60;73.80
8178;DHT22;4130;48.740;9.132;2022-07-24T15:09:59;31.70;74.50
8178;DHT22;4130;48.740;9.132;2022-07-24T15:12:26;31.80;73.20
8178;DHT22;4130;48.740;9.132;2022-07-24T15:14:53;31.90;73.70
8178;DHT22;4130;48.740;9.132;2022-07-24T15:17:20;32.00;74.20
8178;DHT22;4130;48.740;9.132;2022-07-24T15:19:47;32.10;73.70
8178;DHT22;4130;48.740;9.132;2022-07-24T15:22:14;32.10;73.10
8178;DHT22;4130;48.740;9.132;2022-07-24T15:24:41;32.20;73.50
8178;DHT22;4130;48.740;9.132;2022-07-24T15:27:09;32.20;74.10
8178;DHT22;4130;48.740;9.132;2022-07-24T15:29:36;32.10;73.30
8178;DHT22;4130;48.740;9.132;2022-07-24T15:32:04;32.00;73.00
8178;DHT22;4130;48.740;9.132;2022-07-24T15:34:31;31.50;72.90
8178;DHT22;4130;48.740;9.132;2022-07-24T15:36:58;31.40;73.60
8178;DHT22;4130;48.740;9.132;2022-07-24T15:39:25;31.50;73.80
8178;DHT22;4130;48.740;9.132;2022-07-24T15:41:52;31.50;74.10
8178;DHT22;4130;48.740;9.132;2022-07-24T15:44:22;31.70;73.40
8178;DHT22;4130;48.740;9.132;2022-07-24T15:46:49;31.60;72.50
8178;DHT22;4130;48.740;9.132;2022-07-24T15:49:16;31.60;73.10
8178;DHT22;4130;48.740;9.132;2022-07-24T15:51:44;31.50;73.50
8178;DHT22;4130;48.740;9.132;2022-07-24T15:54:11;31.50;73.30
8178;DHT22;4130;48.740;9.132;2022-07-24T15:56:38;31.50;73.40
8178;DHT22;4130;48.740;9.132;2022-07-24T15:59:05;31.60;73.70
8178;DHT22;4130;48.740;9.132;2022-07-24T16:01:34;31.70;73.70
8178;DHT22;4130;48.740;9.132;2022-07-24T16:04:01;31.70;73.20
8178;DHT22;4130;48.740;9.132;2022-07-24T16:06:28;31.60;72.60
8178;DHT22;4130;48.740;9.132;2022-07-24T16:08:55;31.70;73.50
8178;DHT22;4130;48.740;9.132;2022-07-24T16:11:22;31.60;73.90
8178;DHT22;4130;48.740;9.132;2022-07-24T16:13:49;31.70;74.60
8178;DHT22;4130;48.740;9.132;2022-07-24T16:16:17;31.70;72.90
8178;DHT22;4130;48.740;9.132;2022-07-24T16:18:49;31.80;74.90
8178;DHT22;4130;48.740;9.132;2022-07-24T16:21:17;31.80;74.10
8178;DHT22;4130;48.740;9.132;2022-07-24T16:23:45;31.90;74.00
8178;DHT22;4130;48.740;9.132;2022-07-24T16:26:12;31.90;73.90